Time;durP1;ratioP1;P1;durP2;ratioP2;P2;SDS_P1;SDS_P2;PMS_P1;PMS_P2;Temp;Humidity;BMP_temperature;BMP_pressure;BME280_temperature;BME280_humidity;BME280_pressure;Samples;Min_cycle;Max_cycle;Signal;HPM_P1;HPM_P2
2023/11/05 00:01:31;;;;;;;10.18;4.75;;;24.00;45.90;;;;;;6175087;28;80517;-62
2023/11/05 00:04:31;;;;;;;8.00;4.53;;;24.00;45.90;;;;;;6175786;28;80732;-60
2023/11/05 00:07:32;;;;;;;6.78;4.40;;;24.00;45.80;;;;;;6174976;28;82267;-60
2023/11/05 00:10:32;;;;;;;7.25;4.20;;;24.00;45.80;;;;;;6179808;28;80998;-70
2023/11/05 00:13:33;;;;;;;7.45;5.03;;;24.10;45.80;;;;;;6177673;28;82755;-71
2023/11/05 00:16:33;;;;;;;6.75;4.35;;;24.10;45.70;;;;;;6178064;28;80340;-76
2023/11/05 00:19:34;;;;;;;7.70;4.32;;;24.10;45.70;;;;;;6178631;28;80432;-75
2023/11/05 00:22:34;;;;;;;6.45;4.65;;;24.10;45.70;;;;;;6178268;28;81626;-71
2023/11/05 00:25:35;;;;;;;8.48;4.30;;;24.00;46.30;;;;;;6178343;28;80749;-71
2023/11/05 00:28:35;;;;;;;7.65;4.90;;;24.00;45.80;;;;;;6178633;28;81105;-65
2023/11/05 00:31:36;;;;;;;7.60;4.32;;;24.10;45.80;;;;;;6176380;28;82329;-66
2023/11/05 00:34:37;;;;;;;8.90;4.70;;;24.00;45.60;;;;;;6177641;28;80996;-67
2023/11/05 00:37:37;;;;;;;6.13;4.05;;;24.00;45.60;;;;;;6176970;28;80380;-64
2023/11/05 00:40:38;;;;;;;8.52;5.40;;;24.00;45.60;;;;;;6177159;28;81476;-64
2023/11/05 00:43:38;;;;;;;6.18;4.38;;;24.00;45.60;;;;;;6176993;28;80392;-66
2023/11/05 00:46:39;;;;;;;7.63;4.22;;;24.00;45.70;;;;;;6175681;28;82092;-64
2023/11/05 00:49:40;;;;;;;7.72;4.63;;;24.00;45.60;;;;;;6177934;28;80396;-65
2023/11/05 00:52:41;;;;;;;8.32;4.78;;;24.00;45.80;;;;;;6176643;28;82407;-65
2023/11/05 00:55:41;;;;;;;7.15;4.43;;;24.00;45.70;;;;;;6174103;28;80208;-66
2023/11/05 00:58:42;;;;;;;4.65;3.53;;;24.00;45.70;;;;;;6177532;28;80398;-66
2023/11/05 01:01:42;;;;;;;5.60;3.85;;;24.00;45.70;;;;;;6177791;28;80401;-65
2023/11/05 01:04:43;;;;;;;6.70;4.38;;;24.00;45.60;;;;;;6177849;28;80194;-72
2023/11/05 01:07:44;;;;;;;4.68;3.63;;;24.00;45.60;;;;;;6176446;28;81312;-71
2023/11/05 01:10:44;;;;;;;6.75;3.97;;;24.00;45.60;;;;;;6175305;28;81621;-72
2023/11/05 01:13:45;;;;;;;5.50;3.42;;;24.00;45.50;;;;;;6176089;28;81691;-70
2023/11/05 01:16:45;;;;;;;5.10;3.13;;;24.00;45.50;;;;;;6178164;28;80889;-73
2023/11/05 01:19:46;;;;;;;6.35;3.95;;;24.00;45.60;;;;;;6178012;28;80289;-70
2023/11/05 01:22:47;;;;;;;4.90;3.38;;;23.90;45.60;;;;;;6167232;28;80211;-69
2023/11/05 01:25:47;;;;;;;4.85;3.25;;;23.90;45.60;;;;;;6177895;28;80808;-62
2023/11/05 01:28:48;;;;;;;7.15;4.15;;;24.00;45.60;;;;;;6174643;28;81960;-64
2023/11/05 01:31:49;;;;;;;5.55;3.28;;;24.00;45.70;;;;;;6175435;28;81810;-61
2023/11/05 01:34:49;;;;;;;6.18;3.17;;;24.00;45.70;;;;;;6170586;28;81513;-60
2023/11/05 01:37:50;;;;;;;5.28;3.38;;;24.00;45.70;;;;;;6176656;28;82020;-60
2023/11/05 01:40:50;;;;;;;6.35;3.47;;;24.00;45.60;;;;;;6176414;28;81160;-61
2023/11/05 01:43:51;;;;;;;5.95;3.15;;;24.00;45.60;;;;;;6176028;28;83144;-62
2023/11/05 01:46:52;;;;;;;5.47;3.25;;;24.00;45.60;;;;;;6176638;28;80236;-62
2023/11/05 01:49:52;;;;;;;4.97;3.05;;;24.00;45.50;;;;;;6173367;28;82861;-62
2023/11/05 01:52:55;;;;;;;4.78;2.90;;;24.00;45.50;;;;;;6174711;28;82842;-61
2023/11/05 01:55:57;;;;;;;4.57;3.00;;;24.00;45.40;;;;;;6173386;28;82671;-60
2023/11/05 01:58:58;;;;;;;5.35;3.20;;;24.00;45.50;;;;;;6163879;28;87446;-61
2023/11/05 02:01:58;;;;;;;3.53;2.50;;;24.00;45.60;;;;;;6149831;28;82903;-68
2023/11/05 02:04:59;;;;;;;4.43;3.20;;;24.00;45.60;;;;;;6175728;28;80520;-69
2023/11/05 02:08:00;;;;;;;5.03;3.13;;;24.00;45.70;;;;;;6175308;28;82476;-72
2023/11/05 02:11:00;;;;;;;3.22;2.22;;;24.00;45.90;;;;;;6175972;28;81725;-69
2023/11/05 02:14:01;;;;;;;3.78;2.47;;;24.00;45.70;;;;;;6174989;28;82906;-68
2023/11/05 02:17:01;;;;;;;4.43;2.53;;;24.00;45.80;;;;;;6201733;28;80354;-70
2023/11/05 02:20:05;;;;;;;3.40;2.38;;;24.00;45.80;;;;;;6198366;28;82182;-68
2023/11/05 02:23:06;;;;;;;4.78;2.55;;;24.00;46.30;;;;;;6186496;28;83480;-73
2023/11/05 02:26:06;;;;;;;3.40;2.35;;;24.00;45.80;;;;;;6179159;28;80658;-71
2023/11/05 02:29:07;;;;;;;3.13;2.20;;;24.00;45.60;;;;;;6172733;28;82809;-73
2023/11/05 02:32:08;;;;;;;2.53;2.05;;;24.00;46.10;;;;;;6165882;28;83757;-72
2023/11/05 02:35:08;;;;;;;3.35;2.25;;;24.00;45.90;;;;;;6177624;28;82971;-74
2023/11/05 02:38:09;;;;;;;4.70;2.30;;;24.00;45.90;;;;;;6191924;28;80572;-64
2023/11/05 02:41:12;;;;;;;3.13;2.03;;;24.00;46.00;;;;;;6177922;28;80691;-63
2023/11/05 02:44:12;;;;;;;3.50;2.38;;;24.00;45.90;;;;;;6186300;28;83269;-63
2023/11/05 02:47:13;;;;;;;3.78;2.35;;;24.00;45.80;;;;;;6178305;28;80118;-66
2023/11/05 02:50:14;;;;;;;3.67;2.05;;;23.90;45.80;;;;;;6198696;28;80407;-65
2023/11/05 02:53:15;;;;;;;2.70;2.00;;;23.90;45.70;;;;;;6185726;28;83622;-65
2023/11/05 02:56:16;;;;;;;4.13;2.20;;;23.90;45.60;;;;;;6174735;28;80808;-62
2023/11/05 02:59:21;;;;;;;3.15;1.88;;;23.90;45.70;;;;;;6179609;28;82033;-60
2023/11/05 03:02:22;;;;;;;3.17;1.83;;;23.80;45.70;;;;;;6198054;28;83033;-61
2023/11/05 03:05:23;;;;;;;2.40;1.77;;;23.80;45.50;;;;;;6200621;28;80339;-62
2023/11/05 03:08:23;;;;;;;4.45;1.90;;;23.80;45.60;;;;;;6194062;28;80359;-61
2023/11/05 03:11:23;;;;;;;2.63;1.80;;;23.80;45.50;;;;;;6197996;28;81456;-61
2023/11/05 03:14:25;;;;;;;2.65;1.98;;;23.80;45.50;;;;;;6199844;28;81444;-62
2023/11/05 03:17:25;;;;;;;3.28;2.00;;;23.80;45.50;;;;;;6198946;28;83059;-61
2023/11/05 03:20:26;;;;;;;3.05;2.28;;;23.80;45.50;;;;;;6198613;28;82984;-63
2023/11/05 03:23:26;;;;;;;2.42;1.58;;;23.90;45.70;;;;;;6189164;28;80844;-61
2023/11/05 03:26:27;;;;;;;2.88;1.95;;;23.90;45.70;;;;;;6197942;28;83749;-61
2023/11/05 03:29:28;;;;;;;3.80;1.80;;;23.90;45.70;;;;;;6186008;28;80161;-62
2023/11/05 03:32:29;;;;;;;2.90;1.90;;;23.90;45.80;;;;;;6143497;28;83401;-61
2023/11/05 03:35:29;;;;;;;2.78;1.55;;;23.90;45.80;;;;;;6165758;28;80874;-63
2023/11/05 03:38:30;;;;;;;3.08;1.65;;;23.90;45.90;;;;;;6186262;28;82681;-60
2023/11/05 03:41:30;;;;;;;2.60;1.75;;;23.90;46.00;;;;;;6194841;28;80696;-61
2023/11/05 03:44:31;;;;;;;3.25;1.63;;;23.90;46.00;;;;;;6191060;28;80620;-60
2023/11/05 03:47:32;;;;;;;3.55;1.92;;;23.90;46.10;;;;;;6200241;28;80940;-60
2023/11/05 03:50:32;;;;;;;2.45;1.50;;;23.90;46.10;;;;;;6196527;28;82710;-60
2023/11/05 03:53:33;;;;;;;2.47;1.80;;;23.90;46.10;;;;;;6189999;28;81665;-60
2023/11/05 03:56:33;;;;;;;2.72;1.52;;;24.00;46.20;;;;;;6180341;28;80966;-61
2023/11/05 03:59:34;;;;;;;2.55;1.65;;;23.90;46.10;;;;;;6168997;28;80736;-61
2023/11/05 04:02:34;;;;;;;2.75;1.60;;;23.90;46.00;;;;;;6152657;28;80357;-61
2023/11/05 04:05:35;;;;;;;3.30;1.83;;;23.90;46.00;;;;;;6178992;28;80207;-61
2023/11/05 04:08:35;;;;;;;2.53;1.42;;;23.90;46.10;;;;;;6199714;28;80906;-72
2023/11/05 04:11:36;;;;;;;3.05;1.30;;;23.90;46.10;;;;;;6187858;28;83661;-68
2023/11/05 04:14:36;;;;;;;2.83;1.60;;;23.90;46.10;;;;;;6179181;28;80489;-69
2023/11/05 04:17:37;;;;;;;1.95;1.42;;;24.00;46.20;;;;;;6178133;28;80980;-66
2023/11/05 04:20:38;;;;;;;3.65;1.40;;;23.90;46.10;;;;;;6179640;28;80120;-69
2023/11/05 04:23:38;;;;;;;1.73;1.10;;;23.90;46.10;;;;;;6178121;28;80896;-68
2023/11/05 04:26:39;;;;;;;1.92;1.20;;;24.00;46.40;;;;;;6179885;28;80521;-63
2023/11/05 04:29:39;;;;;;;2.33;1.20;;;23.90;46.30;;;;;;6167817;28;80560;-64
2023/11/05 04:32:40;;;;;;;1.45;1.13;;;23.90;46.10;;;;;;6176488;28;81254;-64
2023/11/05 04:35:40;;;;;;;1.30;0.95;;;24.00;46.20;;;;;;6178092;28;80494;-63
2023/11/05 04:38:41;;;;;;;1.42;1.10;;;24.00;46.30;;;;;;6197702;28;81479;-62
2023/11/05 04:41:42;;;;;;;1.55;1.20;;;24.00;46.30;;;;;;6198884;28;80698;-63
2023/11/05 04:44:42;;;;;;;1.25;1.15;;;24.00;46.30;;;;;;6165397;28;80686;-60
2023/11/05 04:47:43;;;;;;;1.33;1.05;;;24.10;46.40;;;;;;6166226;28;80307;-69
2023/11/05 04:50:43;;;;;;;2.15;1.15;;;24.10;46.20;;;;;;6177302;28;82183;-73
2023/11/05 04:53:44;;;;;;;1.25;0.95;;;24.10;46.30;;;;;;6190524;28;81795;-71
2023/11/05 04:56:44;;;;;;;1.30;0.90;;;24.20;46.70;;;;;;6167193;28;81140;-68
2023/11/05 04:59:45;;;;;;;1.70;1.00;;;24.20;46.60;;;;;;6178605;28;80218;-70
2023/11/05 05:02:46;;;;;;;2.40;1.05;;;24.20;46.50;;;;;;6191152;28;80582;-69
2023/11/05 05:05:47;;;;;;;1.73;1.10;;;24.20;46.70;;;;;;6177723;28;80968;-72
2023/11/05 05:08:48;;;;;;;1.80;1.02;;;24.20;46.40;;;;;;6189066;28;81040;-69
2023/11/05 05:11:48;;;;;;;2.08;0.90;;;24.30;46.70;;;;;;6181821;28;80984;-69
2023/11/05 05:14:49;;;;;;;1.35;1.00;;;24.20;46.80;;;;;;6180536;28;80436;-68
2023/11/05 05:17:49;;;;;;;2.08;0.80;;;24.30;46.90;;;;;;6186656;28;80546;-68
2023/11/05 05:20:50;;;;;;;1.20;0.95;;;24.20;46.70;;;;;;6194168;28;80176;-68
2023/11/05 05:23:50;;;;;;;1.08;0.63;;;24.20;47.00;;;;;;6187827;28;83960;-62
2023/11/05 05:26:51;;;;;;;6.78;0.80;;;24.30;46.90;;;;;;6175654;28;80981;-61
2023/11/05 05:29:52;;;;;;;1.20;0.88;;;24.30;47.00;;;;;;6177282;28;81608;-62
2023/11/05 05:32:53;;;;;;;0.80;0.80;;;24.30;47.10;;;;;;6153120;28;82834;-62
2023/11/05 05:35:54;;;;;;;2.83;0.98;;;24.20;47.10;;;;;;6158386;28;80487;-62
2023/11/05 05:38:54;;;;;;;1.15;0.80;;;24.30;47.20;;;;;;6164078;28;83287;-62
2023/11/05 05:41:55;;;;;;;1.80;1.00;;;24.30;47.40;;;;;;6175691;28;80952;-62
2023/11/05 05:44:56;;;;;;;7.57;1.55;;;24.20;47.20;;;;;;6164093;28;83012;-67
2023/11/05 05:47:56;;;;;;;1.50;0.90;;;24.20;47.20;;;;;;6166742;28;83012;-66
2023/11/05 05:50:57;;;;;;;4.90;1.20;;;24.30;47.40;;;;;;6178523;28;82980;-62
2023/11/05 05:53:57;;;;;;;4.78;1.02;;;24.20;47.30;;;;;;6174683;28;81067;-62
2023/11/05 05:56:58;;;;;;;6.85;0.75;;;24.30;47.50;;;;;;6183950;28;80583;-61
2023/11/05 05:59:59;;;;;;;7.63;0.98;;;24.20;47.90;;;;;;6175680;28;80721;-65
2023/11/05 06:03:00;;;;;;;1.05;0.73;;;24.20;47.80;;;;;;6200811;28;80421;-65
2023/11/05 06:06:00;;;;;;;1.90;1.40;;;24.20;47.50;;;;;;6176015;28;80423;-64
2023/11/05 06:09:01;;;;;;;1.17;0.70;;;24.20;47.50;;;;;;6175136;28;84324;-66
2023/11/05 06:12:02;;;;;;;4.93;0.90;;;24.20;47.60;;;;;;6175908;28;81551;-63
2023/11/05 06:15:04;;;;;;;3.90;0.70;;;24.20;47.50;;;;;;6175451;28;81076;-63
2023/11/05 06:18:04;;;;;;;2.55;0.95;;;24.20;47.90;;;;;;6177275;28;80616;-65
2023/11/05 06:21:05;;;;;;;3.28;1.08;;;24.20;48.30;;;;;;6176386;28;80417;-67
2023/11/05 06:24:05;;;;;;;1.35;0.95;;;24.20;48.30;;;;;;6174932;28;80575;-73
2023/11/05 06:27:06;;;;;;;3.35;0.95;;;24.30;48.70;;;;;;6193365;28;82082;-74
2023/11/05 06:30:07;;;;;;;9.55;2.17;;;24.30;48.80;;;;;;6186421;28;80851;-71
2023/11/05 06:33:08;;;;;;;16.42;2.03;;;24.30;49.10;;;;;;6163599;28;80651;-68
2023/11/05 06:36:09;;;;;;;14.68;3.70;;;24.30;49.00;;;;;;6159688;28;83412;-68
2023/11/05 06:39:09;;;;;;;9.15;2.90;;;24.30;49.10;;;;;;6162178;28;80497;-69
2023/11/05 06:42:10;;;;;;;10.43;4.57;;;24.30;48.80;;;;;;6153538;28;80937;-64
2023/11/05 06:45:10;;;;;;;6.97;3.58;;;24.30;49.40;;;;;;6161668;28;81979;-66
2023/11/05 06:48:11;;;;;;;8.98;4.55;;;24.30;49.00;;;;;;6166896;28;80350;-64
2023/11/05 06:51:11;;;;;;;11.25;5.85;;;24.30;48.90;;;;;;6172145;28;82273;-67
2023/11/05 06:54:13;;;;;;;12.43;7.15;;;24.30;50.50;;;;;;6156900;28;81338;-67
2023/11/05 06:57:13;;;;;;;10.20;6.00;;;24.30;51.00;;;;;;6162104;28;80821;-63
2023/11/05 07:00:15;;;;;;;15.48;5.63;;;24.30;51.40;;;;;;6175441;28;80506;-62
2023/11/05 07:03:16;;;;;;;9.95;5.20;;;24.40;51.60;;;;;;6156905;28;80535;-61
2023/11/05 07:06:16;;;;;;;12.68;5.40;;;24.40;51.70;;;;;;6159802;28;80704;-65
2023/11/05 07:09:17;;;;;;;11.20;4.88;;;24.40;51.50;;;;;;6157760;28;81301;-66
2023/11/05 07:12:17;;;;;;;12.70;4.85;;;24.40;51.70;;;;;;6155489;28;80770;-73
2023/11/05 07:15:18;;;;;;;14.73;5.18;;;24.40;51.60;;;;;;6156061;28;80620;-74
2023/11/05 07:18:18;;;;;;;10.20;4.55;;;24.40;51.70;;;;;;6156762;28;80233;-67
2023/11/05 07:21:19;;;;;;;8.93;3.97;;;24.40;51.80;;;;;;6153329;28;80358;-72
2023/11/05 07:24:19;;;;;;;9.57;3.88;;;24.40;51.80;;;;;;6171764;28;85885;-63
2023/11/05 07:27:21;;;;;;;8.18;3.63;;;24.40;52.10;;;;;;6175271;28;81042;-66
2023/11/05 07:30:21;;;;;;;7.38;3.40;;;24.40;51.20;;;;;;6173766;28;80767;-66
2023/11/05 07:33:22;;;;;;;8.82;3.03;;;24.40;51.00;;;;;;6157503;28;80553;-71
2023/11/05 07:36:22;;;;;;;8.05;2.72;;;24.40;50.70;;;;;;6147385;28;81973;-68
2023/11/05 07:39:23;;;;;;;6.40;2.60;;;24.30;51.30;;;;;;6158185;28;81246;-68
2023/11/05 07:42:23;;;;;;;10.98;3.67;;;24.30;51.40;;;;;;6157599;28;82401;-65
2023/11/05 07:45:24;;;;;;;10.77;2.63;;;24.30;51.80;;;;;;6155882;28;80988;-69
2023/11/05 07:48:24;;;;;;;20.67;2.83;;;24.30;51.60;;;;;;6157755;28;81687;-73
2023/11/05 07:51:25;;;;;;;7.53;2.63;;;24.30;51.80;;;;;;6156548;28;81173;-61
2023/11/05 07:54:26;;;;;;;12.70;3.60;;;24.30;51.30;;;;;;6159258;28;81421;-60
2023/11/05 07:57:27;;;;;;;7.65;2.90;;;24.30;51.50;;;;;;6155459;28;82533;-60
2023/11/05 08:00:28;;;;;;;7.03;2.75;;;24.20;51.50;;;;;;6156673;28;81926;-63
2023/11/05 08:03:28;;;;;;;7.53;2.58;;;24.20;51.40;;;;;;6157540;28;81776;-60
2023/11/05 08:06:29;;;;;;;9.32;2.40;;;24.20;50.90;;;;;;6153623;28;84559;-63
2023/11/05 08:09:29;;;;;;;5.65;2.28;;;24.30;50.80;;;;;;6154377;28;80952;-66
2023/11/05 08:12:30;;;;;;;6.95;2.85;;;24.30;50.80;;;;;;6153937;28;81590;-63
2023/11/05 08:15:30;;;;;;;5.53;2.50;;;24.30;50.60;;;;;;6152071;28;81885;-61
2023/11/05 08:18:31;;;;;;;5.95;2.38;;;24.20;50.60;;;;;;6148297;28;82173;-63
2023/11/05 08:21:31;;;;;;;6.28;2.10;;;24.30;50.70;;;;;;6147266;28;82057;-63
2023/11/05 08:24:33;;;;;;;5.63;1.80;;;24.30;50.90;;;;;;6158347;28;82564;-62
2023/11/05 08:27:33;;;;;;;4.03;1.92;;;24.30;50.80;;;;;;6148675;28;84285;-62
2023/11/05 08:30:34;;;;;;;4.55;1.67;;;24.30;50.60;;;;;;6157743;28;81229;-61
2023/11/05 08:33:34;;;;;;;5.80;1.80;;;24.40;50.40;;;;;;6156867;28;83731;-64
2023/11/05 08:36:35;;;;;;;3.80;1.38;;;24.40;50.60;;;;;;6148689;28;83056;-60
2023/11/05 08:39:35;;;;;;;3.60;1.80;;;24.30;50.70;;;;;;6166506;28;81178;-60
2023/11/05 08:42:37;;;;;;;7.45;2.17;;;24.30;50.60;;;;;;6175517;28;80919;-65
2023/11/05 08:45:37;;;;;;;5.95;1.63;;;24.30;50.50;;;;;;6167608;28;81086;-73
2023/11/05 08:48:38;;;;;;;5.07;1.50;;;24.30;50.70;;;;;;6171779;28;80618;-78
2023/11/05 08:51:38;;;;;;;5.72;1.75;;;24.30;50.60;;;;;;6176773;28;81736;-75
2023/11/05 08:54:39;;;;;;;7.38;1.70;;;24.40;50.70;;;;;;6161608;28;80847;-77
2023/11/05 08:57:39;;;;;;;7.90;2.80;;;24.30;50.90;;;;;;6149062;28;81592;-62
2023/11/05 09:00:40;;;;;;;7.68;1.67;;;24.40;50.90;;;;;;6169201;28;86865;-75
2023/11/05 09:03:42;;;;;;;8.02;1.55;;;24.40;50.80;;;;;;6178274;28;82026;-60
2023/11/05 09:06:44;;;;;;;5.18;1.60;;;24.40;50.90;;;;;;6175124;28;82016;-61
2023/11/05 09:09:45;;;;;;;4.57;1.70;;;24.30;50.90;;;;;;6175616;28;81636;-62
2023/11/05 09:12:46;;;;;;;4.22;2.20;;;24.30;50.40;;;;;;6169555;28;80392;-58
2023/11/05 09:15:49;;;;;;;5.32;1.95;;;24.30;51.00;;;;;;6177298;28;82006;-59
2023/11/05 09:18:50;;;;;;;2.72;1.95;;;24.30;51.00;;;;;;6172570;28;81502;-59
2023/11/05 09:21:50;;;;;;;4.57;1.50;;;24.30;51.30;;;;;;6177386;28;83553;-60
2023/11/05 09:24:51;;;;;;;2.63;1.58;;;24.30;51.30;;;;;;6159859;28;81100;-59
2023/11/05 09:27:51;;;;;;;8.75;1.75;;;24.30;51.40;;;;;;6163891;28;84674;-60
2023/11/05 09:30:53;;;;;;;2.70;1.85;;;24.30;51.50;;;;;;6164524;28;85976;-60
2023/11/05 09:33:54;;;;;;;4.30;1.98;;;24.30;51.50;;;;;;6178275;28;80214;-59
2023/11/05 09:36:54;;;;;;;6.93;1.60;;;24.30;51.30;;;;;;6174983;28;82908;-60
2023/11/05 09:39:55;;;;;;;3.00;1.90;;;24.40;51.50;;;;;;6178372;28;83357;-62
2023/11/05 09:42:58;;;;;;;4.75;1.65;;;24.40;51.40;;;;;;6170220;28;87282;-63
2023/11/05 09:46:00;;;;;;;5.10;1.90;;;24.40;51.50;;;;;;6178018;28;83706;-69
2023/11/05 09:49:01;;;;;;;5.95;1.80;;;24.40;51.80;;;;;;6177578;28;80731;-72
2023/11/05 09:52:02;;;;;;;5.07;1.48;;;24.40;51.80;;;;;;6176962;28;80986;-67
2023/11/05 09:55:04;;;;;;;6.18;2.00;;;24.40;52.00;;;;;;6177832;28;80693;-64
2023/11/05 09:58:05;;;;;;;4.68;2.30;;;24.40;51.90;;;;;;6170545;28;81882;-68
2023/11/05 10:01:05;;;;;;;5.50;1.85;;;24.40;51.70;;;;;;6172464;28;80730;-65
2023/11/05 10:04:06;;;;;;;3.88;2.08;;;24.40;51.90;;;;;;6168364;28;80686;-69
2023/11/05 10:07:06;;;;;;;5.40;1.60;;;24.40;52.10;;;;;;6173296;28;80301;-69
2023/11/05 10:10:08;;;;;;;5.32;2.22;;;24.40;52.20;;;;;;6169822;28;82987;-69
2023/11/05 10:13:10;;;;;;;4.13;1.80;;;24.40;52.40;;;;;;6175508;28;82518;-67
2023/11/05 10:16:10;;;;;;;7.70;2.15;;;24.50;52.10;;;;;;6174149;28;81674;-69
2023/11/05 10:19:11;;;;;;;8.10;2.28;;;24.50;53.40;;;;;;6175413;28;81801;-67
2023/11/05 10:22:11;;;;;;;12.73;2.83;;;24.50;54.10;;;;;;6176163;28;80497;-65
2023/11/05 10:25:12;;;;;;;13.30;2.63;;;24.50;54.30;;;;;;6174058;28;81305;-66
2023/11/05 10:28:13;;;;;;;7.70;2.88;;;24.50;54.40;;;;;;6174777;28;80664;-63
2023/11/05 10:31:14;;;;;;;22.58;3.40;;;24.50;54.20;;;;;;6176514;28;81751;-65
2023/11/05 10:34:14;;;;;;;6.35;2.42;;;24.50;54.30;;;;;;6173472;28;81048;-66
2023/11/05 10:37:15;;;;;;;6.78;2.67;;;24.50;54.00;;;;;;6174463;28;80404;-67
2023/11/05 10:40:16;;;;;;;16.02;3.75;;;24.50;54.00;;;;;;6172599;28;80636;-68
2023/11/05 10:43:16;;;;;;;10.48;3.60;;;24.50;54.90;;;;;;6175027;28;80422;-67
2023/11/05 10:46:17;;;;;;;16.92;3.97;;;24.50;55.70;;;;;;6175407;28;81280;-65
2023/11/05 10:49:17;;;;;;;18.50;3.80;;;24.50;56.00;;;;;;6174121;28;80267;-65
2023/11/05 10:52:18;;;;;;;13.93;3.65;;;24.40;55.90;;;;;;6174127;28;82266;-67
2023/11/05 10:55:20;;;;;;;5.95;2.88;;;24.50;56.00;;;;;;6176137;28;80702;-64
2023/11/05 10:58:21;;;;;;;11.63;4.32;;;24.40;55.90;;;;;;6177046;28;80258;-64
2023/11/05 11:01:22;;;;;;;7.60;3.10;;;24.30;55.80;;;;;;6178971;28;81227;-62
2023/11/05 11:04:22;;;;;;;11.48;4.35;;;24.30;56.20;;;;;;6179951;28;81523;-64
2023/11/05 11:07:23;;;;;;;13.32;3.10;;;24.30;55.40;;;;;;6180460;28;80679;-64
2023/11/05 11:10:23;;;;;;;11.65;3.42;;;24.30;55.30;;;;;;6180227;28;80770;-63
2023/11/05 11:13:24;;;;;;;8.68;3.47;;;24.30;55.10;;;;;;6179299;28;81292;-64
2023/11/05 11:16:25;;;;;;;11.00;3.75;;;24.30;54.80;;;;;;6177532;28;80099;-69
2023/11/05 11:19:25;;;;;;;14.18;3.55;;;24.20;54.90;;;;;;6173088;28;81816;-67
2023/11/05 11:22:26;;;;;;;8.20;3.20;;;24.30;55.30;;;;;;6182289;28;80763;-69
2023/11/05 11:25:27;;;;;;;11.75;3.95;;;24.30;55.30;;;;;;6181535;28;80651;-67
2023/11/05 11:28:27;;;;;;;5.57;2.90;;;24.30;55.30;;;;;;6181250;28;81700;-65
2023/11/05 11:31:28;;;;;;;5.55;2.90;;;24.30;55.50;;;;;;6181090;28;82568;-70
2023/11/05 11:34:28;;;;;;;7.45;3.55;;;24.30;55.50;;;;;;6179809;28;82156;-68
2023/11/05 11:37:29;;;;;;;7.03;3.20;;;24.30;55.40;;;;;;6181918;28;81224;-71
2023/11/05 11:40:30;;;;;;;3.95;2.28;;;24.30;55.30;;;;;;6180871;28;80598;-72
2023/11/05 11:43:30;;;;;;;8.85;3.55;;;24.30;55.10;;;;;;6177416;28;80128;-73
2023/11/05 11:46:31;;;;;;;7.22;3.10;;;24.30;55.30;;;;;;6178526;28;80464;-72
2023/11/05 11:49:31;;;;;;;9.15;3.33;;;24.30;55.10;;;;;;6181235;28;81356;-72
2023/11/05 11:52:33;;;;;;;9.77;4.80;;;24.30;54.80;;;;;;6181005;28;81967;-70
2023/11/05 11:55:33;;;;;;;11.95;4.75;;;24.30;55.40;;;;;;6179248;28;82451;-72
2023/11/05 11:58:34;;;;;;;9.27;5.63;;;24.40;55.50;;;;;;6177274;28;80939;-71
2023/11/05 12:01:37;;;;;;;13.25;6.93;;;24.40;55.00;;;;;;6176518;28;80546;-69
2023/11/05 12:04:37;;;;;;;12.20;7.72;;;24.40;55.40;;;;;;6180814;28;81518;-72
2023/11/05 12:07:38;;;;;;;15.30;6.57;;;24.40;55.20;;;;;;6180538;28;80321;-63
2023/11/05 12:10:38;;;;;;;13.32;7.68;;;24.40;54.90;;;;;;6179971;28;80515;-63
2023/11/05 12:13:39;;;;;;;15.75;7.60;;;24.40;54.80;;;;;;6180458;28;81702;-64
2023/11/05 12:16:40;;;;;;;9.90;6.63;;;24.40;54.70;;;;;;6177931;28;80989;-65
2023/11/05 12:19:41;;;;;;;12.90;7.35;;;24.40;54.60;;;;;;6180234;28;80719;-65
2023/11/05 12:22:42;;;;;;;11.95;6.82;;;24.40;54.70;;;;;;6180954;28;80268;-65
2023/11/05 12:25:42;;;;;;;11.27;6.72;;;24.40;54.60;;;;;;6179382;28;81512;-68
2023/11/05 12:28:44;;;;;;;11.57;6.47;;;24.30;54.40;;;;;;6181171;28;80595;-63
2023/11/05 12:31:44;;;;;;;17.60;7.68;;;24.40;54.50;;;;;;6177171;28;80442;-61
2023/11/05 12:34:45;;;;;;;12.00;6.22;;;24.40;54.30;;;;;;6179171;28;80298;-62
2023/11/05 12:37:46;;;;;;;14.80;7.15;;;24.40;54.10;;;;;;6150085;28;82120;-65
2023/11/05 12:40:46;;;;;;;9.55;5.60;;;24.40;54.00;;;;;;6154652;28;81129;-61
2023/11/05 12:43:47;;;;;;;9.27;5.53;;;24.40;54.00;;;;;;6154383;28;91386;-61
2023/11/05 12:46:48;;;;;;;10.75;6.85;;;24.40;53.80;;;;;;6153899;28;84028;-62
2023/11/05 12:49:48;;;;;;;11.35;5.63;;;24.30;53.70;;;;;;6140715;28;82568;-64
2023/11/05 12:52:49;;;;;;;11.48;6.03;;;24.40;53.80;;;;;;6154433;28;82966;-62
2023/11/05 12:55:49;;;;;;;9.77;5.53;;;24.30;53.80;;;;;;6153223;28;81304;-63
2023/11/05 12:58:50;;;;;;;10.93;5.53;;;24.30;54.00;;;;;;6153913;28;81637;-62
2023/11/05 13:01:51;;;;;;;14.88;5.90;;;24.30;54.30;;;;;;6150683;28;80833;-61
2023/11/05 13:04:51;;;;;;;11.30;6.32;;;24.30;54.50;;;;;;6153995;28;80526;-63
2023/11/05 13:07:52;;;;;;;12.13;7.15;;;24.30;54.50;;;;;;6153243;28;80763;-62
2023/11/05 13:10:52;;;;;;;16.23;8.85;;;24.30;54.50;;;;;;6153853;28;80462;-62
2023/11/05 13:13:54;;;;;;;22.13;10.50;;;24.30;54.50;;;;;;6124792;28;83324;-63
2023/11/05 13:16:54;;;;;;;23.65;16.20;;;24.30;54.50;;;;;;6168660;28;84361;-63
2023/11/05 13:19:55;;;;;;;28.98;18.27;;;24.30;54.50;;;;;;6167181;28;83197;-73
2023/11/05 13:22:55;;;;;;;32.17;21.08;;;24.30;54.40;;;;;;6170785;28;83449;-72
2023/11/05 13:25:56;;;;;;;33.65;20.65;;;24.30;55.50;;;;;;6171503;28;83127;-77
2023/11/05 13:28:56;;;;;;;32.75;20.98;;;24.40;55.70;;;;;;6158992;28;85850;-73
2023/11/05 13:31:57;;;;;;;29.73;17.75;;;24.40;56.00;;;;;;6093886;28;88402;-72
2023/11/05 13:34:57;;;;;;;30.85;18.05;;;24.40;56.30;;;;;;6164167;28;84816;-71
2023/11/05 13:37:58;;;;;;;24.05;14.57;;;24.50;56.30;;;;;;6172961;28;83043;-67
2023/11/05 13:40:58;;;;;;;28.35;16.63;;;24.40;56.20;;;;;;6170760;28;85666;-66
2023/11/05 13:44:03;;;;;;;23.67;15.27;;;24.50;56.30;;;;;;6173073;28;83715;-68
2023/11/05 13:47:03;;;;;;;24.17;16.08;;;24.50;57.50;;;;;;6159673;28;84845;-69
2023/11/05 13:50:06;;;;;;;22.00;14.50;;;24.50;58.00;;;;;;6171974;28;87847;-73
2023/11/05 13:53:07;;;;;;;26.27;15.43;;;24.60;58.80;;;;;;6174461;28;83009;-71
2023/11/05 13:56:08;;;;;;;19.58;13.15;;;24.60;59.00;;;;;;6171670;28;85827;-66
2023/11/05 13:59:09;;;;;;;18.65;11.95;;;24.60;58.50;;;;;;6175210;28;84917;-66
2023/11/05 14:02:09;;;;;;;15.10;9.75;;;24.70;58.60;;;;;;6169878;28;84345;-64
2023/11/05 14:05:10;;;;;;;15.90;10.45;;;24.70;58.50;;;;;;6178011;28;82858;-64
2023/11/05 14:08:11;;;;;;;20.90;10.48;;;24.80;58.60;;;;;;6174563;28;83119;-66
2023/11/05 14:11:11;;;;;;;13.48;9.45;;;24.90;58.90;;;;;;6169693;28;82971;-68
2023/11/05 14:14:12;;;;;;;15.85;9.07;;;25.10;57.70;;;;;;6175534;28;83236;-68
2023/11/05 14:17:13;;;;;;;17.33;9.23;;;25.20;57.40;;;;;;6173601;28;81171;-74
2023/11/05 14:20:13;;;;;;;13.95;9.20;;;25.30;57.10;;;;;;6175661;28;81273;-67
2023/11/05 14:23:14;;;;;;;12.73;7.18;;;25.40;56.20;;;;;;6177304;28;80644;-65
2023/11/05 14:26:15;;;;;;;14.50;7.68;;;25.40;55.90;;;;;;6179280;28;80391;-67
2023/11/05 14:29:16;;;;;;;14.30;8.25;;;25.50;55.20;;;;;;6175196;28;82151;-68
2023/11/05 14:32:18;;;;;;;11.75;7.18;;;25.50;54.60;;;;;;6179611;28;80980;-68
2023/11/05 14:35:19;;;;;;;11.65;7.25;;;25.50;54.60;;;;;;6176416;28;80501;-65
2023/11/05 14:38:19;;;;;;;12.25;7.75;;;25.50;53.50;;;;;;6176549;28;80791;-63
2023/11/05 14:41:25;;;;;;;11.02;6.75;;;25.50;53.20;;;;;;6161720;28;83376;-62
2023/11/05 14:44:26;;;;;;;11.23;7.10;;;25.50;53.00;;;;;;6157170;28;81129;-67
2023/11/05 14:47:26;;;;;;;9.27;6.25;;;25.30;52.60;;;;;;6173643;28;81070;-67
2023/11/05 14:50:29;;;;;;;12.25;6.88;;;25.20;52.70;;;;;;6171138;28;83880;-70
2023/11/05 14:53:32;;;;;;;15.10;6.50;;;25.10;52.50;;;;;;6172715;28;80721;-65
2023/11/05 14:56:32;;;;;;;16.33;7.07;;;25.10;52.40;;;;;;6163845;28;80568;-67
2023/11/05 14:59:33;;;;;;;11.68;6.82;;;24.90;52.30;;;;;;6150574;28;81904;-65
2023/11/05 15:02:33;;;;;;;9.23;5.65;;;24.90;52.50;;;;;;6155288;28;81796;-66
2023/11/05 15:05:35;;;;;;;9.40;5.40;;;24.90;52.60;;;;;;6150919;28;82988;-66
2023/11/05 15:08:36;;;;;;;9.55;5.72;;;24.90;52.50;;;;;;6152861;28;81465;-65
2023/11/05 15:11:36;;;;;;;8.88;5.13;;;24.90;51.80;;;;;;6143312;28;81076;-60
2023/11/05 15:14:37;;;;;;;6.57;5.20;;;24.90;51.90;;;;;;6148789;28;84768;-63
2023/11/05 15:17:37;;;;;;;8.90;5.15;;;24.80;51.70;;;;;;6151495;28;81896;-62
2023/11/05 15:20:38;;;;;;;9.75;5.32;;;24.80;51.40;;;;;;6153395;28;83371;-63
2023/11/05 15:23:38;;;;;;;7.15;4.70;;;24.80;51.10;;;;;;6153222;28;81443;-61
2023/11/05 15:26:39;;;;;;;7.22;5.03;;;24.70;50.80;;;;;;6152205;28;81598;-60
2023/11/05 15:29:41;;;;;;;6.72;3.58;;;24.70;50.70;;;;;;6150544;28;81730;-74
2023/11/05 15:32:47;;;;;;;8.15;4.25;;;24.70;50.60;;;;;;6154913;28;85221;-79
2023/11/05 15:35:47;;;;;;;6.20;4.45;;;24.70;50.20;;;;;;6151260;28;81706;-74